Time;durP1;ratioP1;P1;durP2;ratioP2;P2;SDS_P1;SDS_P2;PMS_P1;PMS_P2;Temp;Humidity;BMP_temperature;BMP_pressure;BME280_temperature;BME280_humidity;BME280_pressure;Samples;Min_cycle;Max_cycle;Signal;HPM_P1;HPM_P2
2021/01/05 00:00:31;;;;;;;0.20;0.10;;;;;;;2.49;100.00;99924.06;4996267;28;20473;-55
2021/01/05 00:02:57;;;;;;;0.20;0.10;;;;;;;2.49;100.00;99918.81;4995095;28;20880;-60
2021/01/05 00:05:23;;;;;;;0.20;0.10;;;;;;;2.50;100.00;99915.31;4999167;28;20462;-55
2021/01/05 00:07:50;;;;;;;0.20;0.10;;;;;;;2.56;100.00;99918.78;5002798;28;20469;-54
2021/01/05 00:10:17;;;;;;;0.20;0.10;;;;;;;2.51;100.00;99920.56;5005403;28;20473;-55
2021/01/05 00:12:43;;;;;;;0.20;0.10;;;;;;;2.61;100.00;99918.81;4995347;28;20970;-55
2021/01/05 00:15:11;;;;;;;0.20;0.10;;;;;;;2.45;100.00;99924.94;4994878;28;20450;-55
2021/01/05 00:17:37;;;;;;;0.20;0.10;;;;;;;2.52;100.00;99913.56;5005446;28;20558;-54
2021/01/05 00:20:21;;;;;;;0.20;0.10;;;;;;;2.53;100.00;99910.94;5005823;28;20503;-54
2021/01/05 00:22:47;;;;;;;0.20;0.10;;;;;;;2.50;100.00;99916.19;5006768;28;20465;-54
2021/01/05 00:25:17;;;;;;;0.20;0.10;;;;;;;2.55;100.00;99914.44;5006449;28;20507;-54
2021/01/05 00:27:43;;;;;;;0.20;0.10;;;;;;;2.49;100.00;99910.97;4998762;28;20454;-54
2021/01/05 00:30:18;;;;;;;0.20;0.10;;;;;;;2.59;100.00;99917.91;4995046;28;20488;-55
2021/01/05 00:32:46;;;;;;;0.20;0.10;;;;;;;2.60;100.00;99917.94;5002587;28;20520;-54
2021/01/05 00:35:39;;;;;;;0.20;0.10;;;;;;;2.59;100.00;99913.53;5002623;28;20469;-55
2021/01/05 00:38:08;;;;;;;0.20;0.10;;;;;;;2.63;100.00;99914.41;4996169;28;20500;-54
2021/01/05 00:40:35;;;;;;;0.20;0.20;;;;;;;2.64;100.00;99919.66;4999150;28;20540;-54
2021/01/05 00:43:02;;;;;;;0.20;0.10;;;;;;;2.73;100.00;99912.63;4999198;28;20515;-54
2021/01/05 00:45:38;;;;;;;0.30;0.30;;;;;;;2.65;100.00;99923.16;4998899;28;20460;-55
2021/01/05 00:48:06;;;;;;;0.20;0.10;;;;;;;2.68;100.00;99917.91;4995905;28;20457;-54
2021/01/05 00:50:33;;;;;;;0.20;0.10;;;;;;;2.70;100.00;99928.38;4994538;28;20474;-55
2021/01/05 00:53:00;;;;;;;0.20;0.10;;;;;;;2.65;100.00;99934.53;4994475;28;20453;-55
2021/01/05 00:55:29;;;;;;;0.20;0.10;;;;;;;2.59;100.00;99924.03;5003240;28;20506;-54
2021/01/05 00:57:55;;;;;;;0.30;0.20;;;;;;;2.64;100.00;99927.53;5002707;28;20493;-55
2021/01/05 01:00:26;;;;;;;0.20;0.10;;;;;;;2.62;100.00;99925.78;5002203;28;20859;-55
2021/01/05 01:02:53;;;;;;;0.20;0.10;;;;;;;2.61;100.00;99922.31;4994323;28;20912;-55
2021/01/05 01:05:20;;;;;;;0.20;0.10;;;;;;;2.67;100.00;99922.25;4995272;28;20460;-55
2021/01/05 01:07:47;;;;;;;0.20;0.10;;;;;;;2.63;100.00;99924.91;4994502;28;20466;-54
2021/01/05 01:10:13;;;;;;;0.20;0.10;;;;;;;2.54;100.00;99917.06;4994196;28;20484;-54
2021/01/05 01:12:39;;;;;;;17.80;8.30;;;;;;;2.56;100.00;99921.41;4996005;28;20470;-54
2021/01/05 01:15:07;;;;;;;0.20;0.10;;;;;;;2.67;100.00;99924.88;4994914;28;20449;-55
2021/01/05 01:17:33;;;;;;;0.20;0.10;;;;;;;2.70;100.00;99923.13;4994382;28;20492;-55
2021/01/05 01:19:59;;;;;;;1.30;1.30;;;;;;;2.67;100.00;99918.78;4994073;28;20474;-54
2021/01/05 01:22:26;;;;;;;0.20;0.10;;;;;;;2.64;100.00;99916.16;4996316;28;20461;-54
2021/01/05 01:24:52;;;;;;;0.20;0.10;;;;;;;2.74;100.00;99927.47;4995273;28;20854;-55
2021/01/05 01:27:19;;;;;;;0.20;0.10;;;;;;;2.62;100.00;99913.53;5000742;28;20954;-55
2021/01/05 01:29:46;;;;;;;0.20;0.10;;;;;;;2.72;100.00;99922.25;4993956;28;20464;-54
2021/01/05 01:32:12;;;;;;;0.40;0.40;;;;;;;2.83;100.00;99925.72;4993936;28;20453;-55
2021/01/05 01:34:38;;;;;;;0.20;0.10;;;;;;;2.66;100.00;99927.53;5007247;28;20471;-54
2021/01/05 01:37:07;;;;;;;0.30;0.30;;;;;;;2.76;100.00;99925.75;5000208;28;20458;-55
2021/01/05 01:39:35;;;;;;;0.20;0.10;;;;;;;2.81;100.00;99930.09;4981826;28;20891;-55
2021/01/05 01:42:07;;;;;;;0.20;0.10;;;;;;;2.63;100.00;99925.78;4993926;28;20465;-55
2021/01/05 01:44:35;;;;;;;0.20;0.10;;;;;;;2.66;100.00;99928.41;4993831;28;20508;-55
2021/01/05 01:47:17;;;;;;;0.73;0.73;;;;;;;2.65;100.00;99929.28;4993617;28;20507;-54
2021/01/05 01:49:52;;;;;;;0.20;0.10;;;;;;;2.68;100.00;99929.25;4996263;28;20954;-54
2021/01/05 01:52:54;;;;;;;0.20;0.10;;;;;;;2.75;100.00;99919.63;4994097;28;20449;-55
2021/01/05 01:55:44;;;;;;;0.20;0.10;;;;;;;2.74;100.00;99925.75;4990430;28;20436;-55
2021/01/05 01:58:38;;;;;;;0.20;0.10;;;;;;;2.74;100.00;99920.50;5000230;28;20508;-55
2021/01/05 02:01:22;;;;;;;0.20;0.10;;;;;;;2.71;100.00;99919.63;4994292;28;20473;-54
2021/01/05 02:04:15;;;;;;;6.23;4.90;;;;;;;2.84;100.00;99927.47;4993696;28;20519;-54
2021/01/05 02:07:05;;;;;;;0.20;0.10;;;;;;;2.91;100.00;99916.06;4993829;28;20457;-55
2021/01/05 02:09:38;;;;;;;0.53;0.50;;;;;;;2.88;100.00;99918.72;4994028;28;20445;-55
2021/01/05 02:12:22;;;;;;;0.20;0.10;;;;;;;2.99;100.00;99918.66;4994182;28;20504;-55
2021/01/05 02:15:11;;;;;;;0.27;0.13;;;;;;;2.90;100.00;99921.34;4994138;28;20445;-54
2021/01/05 02:17:59;;;;;;;0.20;0.10;;;;;;;2.94;100.00;99918.69;4995975;28;20492;-55
2021/01/05 02:20:35;;;;;;;0.20;0.10;;;;;;;2.94;100.00;99912.56;5001166;28;20538;-54
2021/01/05 02:23:25;;;;;;;0.20;0.10;;;;;;;2.90;100.00;99913.47;5004014;28;20473;-55
2021/01/05 02:26:14;;;;;;;0.20;0.10;;;;;;;2.82;100.00;99910.84;4994411;28;20445;-55
2021/01/05 02:28:52;;;;;;;0.20;0.10;;;;;;;2.79;100.00;99907.38;4994270;28;20863;-55
2021/01/05 02:31:29;;;;;;;0.30;0.20;;;;;;;2.78;100.00;99908.25;4993779;28;20492;-55
2021/01/05 02:34:29;;;;;;;0.20;0.10;;;;;;;2.89;100.00;99912.59;5003070;28;20472;-55
2021/01/05 02:37:07;;;;;;;0.20;0.10;;;;;;;2.76;100.00;99910.00;4993937;28;20523;-55
2021/01/05 02:40:09;;;;;;;0.20;0.10;;;;;;;2.66;100.00;99907.41;4993514;28;20493;-55
2021/01/05 02:43:04;;;;;;;0.30;0.20;;;;;;;2.75;100.00;99910.91;4993710;28;20463;-55
2021/01/05 02:45:47;;;;;;;0.20;0.10;;;;;;;2.74;100.00;99912.66;4987154;28;20464;-54
2021/01/05 02:48:49;;;;;;;0.20;0.10;;;;;;;2.74;100.00;99907.41;4995418;28;20465;-55
2021/01/05 02:51:49;;;;;;;0.20;0.10;;;;;;;2.80;100.00;99912.63;4983609;28;20468;-55
2021/01/05 02:54:51;;;;;;;0.20;0.10;;;;;;;2.92;100.00;99909.94;4993760;28;20500;-55
2021/01/05 02:57:20;;;;;;;0.20;0.10;;;;;;;2.86;100.00;99907.31;5006858;28;21072;-55
2021/01/05 03:00:23;;;;;;;0.20;0.10;;;;;;;2.82;100.00;99905.59;4993687;28;20449;-55
2021/01/05 03:02:55;;;;;;;0.20;0.10;;;;;;;2.95;100.00;99904.69;4993509;28;20461;-55
2021/01/05 03:05:21;;;;;;;0.20;0.10;;;;;;;2.70;100.00;99910.88;4993546;28;20453;-55
2021/01/05 03:07:49;;;;;;;1.23;1.23;;;;;;;2.77;100.00;99903.88;4993224;28;21034;-55
2021/01/05 03:10:54;;;;;;;0.20;0.10;;;;;;;2.62;100.00;99904.81;4992841;28;20908;-55
2021/01/05 03:13:41;;;;;;;0.20;0.10;;;;;;;2.65;100.00;99900.41;4980541;28;20520;-54
2021/01/05 03:16:20;;;;;;;0.20;0.10;;;;;;;2.61;100.00;99906.56;5009984;28;20957;-55
2021/01/05 03:18:52;;;;;;;0.20;0.10;;;;;;;2.62;100.00;99905.69;4997203;28;20501;-55
2021/01/05 03:21:30;;;;;;;0.20;0.10;;;;;;;2.52;100.00;99900.44;4996364;28;20469;-54
2021/01/05 03:23:59;;;;;;;0.20;0.10;;;;;;;2.57;100.00;99907.41;5004982;28;20446;-55
2021/01/05 03:26:48;;;;;;;0.30;0.20;;;;;;;2.60;100.00;99912.69;4996789;28;20445;-55
2021/01/05 03:29:16;;;;;;;0.20;0.10;;;;;;;2.64;100.00;99909.16;5000787;28;20461;-54
2021/01/05 03:31:55;;;;;;;0.20;0.10;;;;;;;2.78;100.00;99909.13;4996621;28;20473;-55
2021/01/05 03:34:22;;;;;;;0.20;0.10;;;;;;;2.89;100.00;99916.97;4996347;28;20809;-55
2021/01/05 03:36:48;;;;;;;0.40;0.40;;;;;;;2.90;100.00;99911.72;4996838;28;20450;-55
2021/01/05 03:39:19;;;;;;;0.20;0.10;;;;;;;2.88;100.00;99909.97;5001036;28;20493;-55
2021/01/05 03:41:45;;;;;;;0.20;0.10;;;;;;;2.90;100.00;99916.09;5005050;28;20469;-55
2021/01/05 03:44:11;;;;;;;0.20;0.10;;;;;;;2.75;100.00;99908.28;5005557;28;20461;-55
2021/01/05 03:46:37;;;;;;;0.20;0.10;;;;;;;2.85;100.00;99910.81;5006225;28;20929;-54
2021/01/05 03:49:04;;;;;;;0.20;0.10;;;;;;;2.78;100.00;99910.88;4998362;28;20448;-55
2021/01/05 03:51:30;;;;;;;0.27;0.20;;;;;;;2.63;100.00;99907.41;4996166;28;20845;-55
2021/01/05 03:53:56;;;;;;;0.20;0.10;;;;;;;2.60;100.00;99915.31;4996435;28;20453;-54
2021/01/05 03:56:23;;;;;;;0.20;0.10;;;;;;;2.63;100.00;99907.41;5006261;28;20467;-54
2021/01/05 03:58:49;;;;;;;0.20;0.10;;;;;;;2.57;100.00;99904.78;4998087;28;21010;-55
2021/01/05 04:01:15;;;;;;;0.20;0.10;;;;;;;2.56;100.00;99903.06;4997638;28;20516;-55
2021/01/05 04:03:42;;;;;;;0.20;0.10;;;;;;;2.64;100.00;99906.53;4997654;28;20461;-55
2021/01/05 04:06:08;;;;;;;0.30;0.10;;;;;;;2.76;100.00;99908.25;4996416;28;20449;-55
2021/01/05 04:08:34;;;;;;;0.20;0.20;;;;;;;2.83;100.00;99909.97;4996837;28;20859;-55
2021/01/05 04:11:00;;;;;;;0.20;0.10;;;;;;;2.85;100.00;99907.34;4998167;28;20480;-55
2021/01/05 04:13:27;;;;;;;0.20;0.10;;;;;;;2.93;100.00;99908.19;4996306;28;20933;-55
2021/01/05 04:15:53;;;;;;;0.20;0.10;;;;;;;2.92;100.00;99906.44;4996298;28;20454;-53
2021/01/05 04:18:19;;;;;;;0.20;0.10;;;;;;;2.84;100.00;99906.47;5007134;28;20496;-53
2021/01/05 04:20:45;;;;;;;0.20;0.10;;;;;;;2.88;100.00;99910.84;4996354;28;20470;-55
2021/01/05 04:23:12;;;;;;;0.20;0.10;;;;;;;2.85;100.00;99902.09;5003516;28;20468;-55
2021/01/05 04:25:38;;;;;;;0.20;0.10;;;;;;;2.89;100.00;99904.72;5005023;28;20522;-55
2021/01/05 04:28:04;;;;;;;0.20;0.10;;;;;;;2.76;100.00;99910.00;4996112;28;20460;-55
2021/01/05 04:30:36;;;;;;;0.20;0.10;;;;;;;2.58;100.00;99905.66;4995756;28;20461;-55
2021/01/05 04:33:08;;;;;;;0.20;0.10;;;;;;;2.53;100.00;99907.44;4995802;28;20214;-55
2021/01/05 04:35:34;;;;;;;0.20;0.10;;;;;;;2.57;100.00;99910.03;4995973;28;20449;-55
2021/01/05 04:38:01;;;;;;;0.20;0.10;;;;;;;2.61;100.00;99916.19;4995708;28;20836;-55
2021/01/05 04:40:42;;;;;;;0.20;0.10;;;;;;;2.63;100.00;99914.41;4998230;28;20497;-55
2021/01/05 04:43:25;;;;;;;0.20;0.10;;;;;;;2.70;100.00;99910.00;4995779;28;20477;-55
2021/01/05 04:46:08;;;;;;;0.20;0.10;;;;;;;2.73;100.00;99910.00;4995402;28;20943;-55
2021/01/05 04:48:55;;;;;;;0.20;0.13;;;;;;;2.88;100.00;99910.84;5005160;28;20460;-55
2021/01/05 04:51:59;;;;;;;0.20;0.10;;;;;;;2.89;100.00;99911.72;4994055;28;20528;-55
2021/01/05 04:54:29;;;;;;;0.20;0.10;;;;;;;2.80;100.00;99909.13;5003511;28;20475;-55
2021/01/05 04:57:17;;;;;;;0.20;0.20;;;;;;;2.94;100.00;99913.44;5008250;28;20446;-55
2021/01/05 04:59:43;;;;;;;1.53;1.53;;;;;;;2.90;100.00;99908.22;4994991;28;20492;-55
2021/01/05 05:02:37;;;;;;;0.20;0.10;;;;;;;2.96;100.00;99900.28;4993972;28;20890;-55
2021/01/05 05:05:18;;;;;;;0.20;0.10;;;;;;;2.97;100.00;99899.41;4994755;28;20471;-55
2021/01/05 05:08:03;;;;;;;0.30;0.30;;;;;;;2.99;100.00;99902.91;4994494;28;20460;-55
2021/01/05 05:10:42;;;;;;;0.20;0.10;;;;;;;3.01;100.00;99916.03;4995033;28;20473;-55
2021/01/05 05:13:29;;;;;;;0.20;0.10;;;;;;;2.87;100.00;99916.94;5003539;28;20955;-58
2021/01/05 05:16:16;;;;;;;0.20;0.10;;;;;;;2.85;100.00;99921.31;4994954;28;20449;-55
2021/01/05 05:19:12;;;;;;;0.30;0.20;;;;;;;2.92;100.00;99922.19;4990611;28;20488;-55
2021/01/05 05:21:56;;;;;;;0.20;0.10;;;;;;;2.88;100.00;99921.34;5000367;28;20485;-55
2021/01/05 05:24:51;;;;;;;0.20;0.10;;;;;;;2.86;100.00;99922.19;4994903;28;20454;-55
2021/01/05 05:27:46;;;;;;;0.20;0.10;;;;;;;2.96;100.00;99916.03;4995071;28;20460;-54
2021/01/05 05:30:35;;;;;;;0.20;0.10;;;;;;;3.00;100.00;99928.28;4978947;28;20481;-54
2021/01/05 05:33:12;;;;;;;0.20;0.10;;;;;;;2.93;100.00;99923.94;4998230;28;20469;-54
2021/01/05 05:35:47;;;;;;;0.20;0.10;;;;;;;2.96;100.00;99932.66;5006278;28;20475;-53
2021/01/05 05:38:43;;;;;;;0.20;0.10;;;;;;;2.88;100.00;99937.09;4993903;28;20485;-54
2021/01/05 05:41:22;;;;;;;0.20;0.10;;;;;;;2.76;100.00;99937.13;4993610;28;20481;-54
2021/01/05 05:44:09;;;;;;;0.20;0.20;;;;;;;2.68;100.00;99937.13;4989549;28;20457;-54
2021/01/05 05:46:43;;;;;;;0.20;0.10;;;;;;;2.82;100.00;99937.09;4984049;28;20461;-53
2021/01/05 05:49:34;;;;;;;0.20;0.10;;;;;;;2.92;100.00;99938.81;5000610;28;20468;-54
2021/01/05 05:52:05;;;;;;;0.20;0.10;;;;;;;2.94;100.00;99938.81;4999292;28;20508;-54
2021/01/05 05:54:33;;;;;;;0.20;0.10;;;;;;;2.96;100.00;99943.16;4994368;28;20473;-54
2021/01/05 05:57:29;;;;;;;0.20;0.10;;;;;;;3.07;100.00;99951.00;5005827;28;21033;-53
2021/01/05 06:00:18;;;;;;;0.20;0.10;;;;;;;3.04;100.00;99955.41;4993167;28;20998;-53
2021/01/05 06:02:44;;;;;;;0.20;0.10;;;;;;;2.80;100.00;99951.97;5002421;28;20460;-54
2021/01/05 06:05:40;;;;;;;15.50;2.00;;;;;;;2.86;100.00;99949.31;4996598;28;20449;-54
2021/01/05 06:08:08;;;;;;;0.20;0.10;;;;;;;2.90;100.00;99950.22;4995918;28;20475;-54
2021/01/05 06:10:34;;;;;;;0.20;0.10;;;;;;;2.96;100.00;99947.53;5002372;28;20576;-54
2021/01/05 06:13:01;;;;;;;0.20;0.10;;;;;;;2.83;100.00;99959.84;4992539;28;20456;-54
2021/01/05 06:15:27;;;;;;;0.20;0.10;;;;;;;2.88;100.00;99947.59;4994190;28;20453;-54
2021/01/05 06:17:54;;;;;;;0.20;0.10;;;;;;;2.99;100.00;99952.78;4993279;28;20501;-54
2021/01/05 06:20:20;;;;;;;0.20;0.10;;;;;;;2.96;100.00;99952.78;5007949;28;20512;-54
2021/01/05 06:22:46;;;;;;;0.20;0.10;;;;;;;2.82;100.00;99951.97;4997511;28;20461;-54
2021/01/05 06:25:16;;;;;;;0.20;0.10;;;;;;;2.78;100.00;99955.50;4993169;28;20446;-54
2021/01/05 06:27:42;;;;;;;0.97;0.93;;;;;;;2.75;100.00;99961.63;4993723;28;20472;-57
2021/01/05 06:30:09;;;;;;;0.20;0.10;;;;;;;2.85;100.00;99962.44;4993859;28;20469;-54
2021/01/05 06:32:35;;;;;;;0.20;0.10;;;;;;;2.82;100.00;99965.97;4993730;28;20449;-56
2021/01/05 06:35:03;;;;;;;0.20;0.10;;;;;;;2.93;100.00;99966.81;4997985;28;20507;-54
2021/01/05 06:37:30;;;;;;;0.20;0.10;;;;;;;2.87;100.00;99958.06;5000215;28;20464;-54
2021/01/05 06:39:56;;;;;;;0.20;0.10;;;;;;;2.92;100.00;99964.19;4984506;28;21014;-54
2021/01/05 06:42:22;;;;;;;0.20;0.10;;;;;;;2.89;100.00;99969.47;4994293;28;20461;-54
2021/01/05 06:44:49;;;;;;;0.20;0.10;;;;;;;2.94;100.00;99979.06;4993772;28;20508;-54
2021/01/05 06:47:15;;;;;;;0.20;0.10;;;;;;;2.91;100.00;99979.06;4993715;28;20449;-54
2021/01/05 06:49:42;;;;;;;0.20;0.10;;;;;;;3.03;100.00;99980.78;4997221;28;20492;-54
2021/01/05 06:52:09;;;;;;;0.20;0.10;;;;;;;2.97;100.00;99984.28;5006411;28;20959;-54
2021/01/05 06:54:35;;;;;;;0.20;0.10;;;;;;;2.91;100.00;99968.56;4997280;28;20461;-53
2021/01/05 06:57:01;;;;;;;0.20;0.10;;;;;;;2.86;100.00;99979.94;5010640;28;20449;-54
2021/01/05 06:59:28;;;;;;;0.20;0.10;;;;;;;2.67;100.00;99977.38;4997286;28;20911;-53
2021/01/05 07:02:01;;;;;;;0.20;0.10;;;;;;;2.64;100.00;99990.50;4996406;28;20465;-53
2021/01/05 07:04:28;;;;;;;0.20;0.10;;;;;;;2.62;100.00;99983.50;5004871;28;20971;-54
2021/01/05 07:06:55;;;;;;;9.43;4.47;;;;;;;2.42;100.00;99982.66;4999509;28;20460;-53
2021/01/05 07:09:26;;;;;;;0.20;0.10;;;;;;;2.40;100.00;99987.03;5004325;28;20824;-53
2021/01/05 07:11:52;;;;;;;0.20;0.10;;;;;;;2.35;100.00;99981.78;4996872;28;20473;-54
2021/01/05 07:14:24;;;;;;;0.20;0.10;;;;;;;2.47;100.00;99984.41;4997370;28;20456;-54
2021/01/05 07:16:50;;;;;;;0.20;0.10;;;;;;;2.47;100.00;99996.63;4997783;28;20923;-53
2021/01/05 07:19:16;;;;;;;0.20;0.10;;;;;;;2.44;100.00;99992.25;4997115;28;20493;-53
2021/01/05 07:21:43;;;;;;;0.60;0.60;;;;;;;2.47;100.00;99991.38;5001010;28;20481;-54
2021/01/05 07:24:10;;;;;;;0.20;0.10;;;;;;;2.41;100.00;99994.00;5015092;28;20530;-54
2021/01/05 07:26:39;;;;;;;0.20;0.10;;;;;;;2.49;100.00;99995.75;4985675;28;20458;-55
2021/01/05 07:29:06;;;;;;;0.20;0.10;;;;;;;2.37;100.00;99994.03;4998708;28;20503;-54
2021/01/05 07:31:32;;;;;;;0.20;0.10;;;;;;;2.38;100.00;99985.28;4998047;28;20480;-53
2021/01/05 07:33:58;;;;;;;0.50;0.50;;;;;;;2.29;100.00;99993.13;4996714;28;20457;-53
2021/01/05 07:36:32;;;;;;;0.20;0.10;;;;;;;2.29;100.00;99992.25;5001103;28;20462;-52
2021/01/05 07:38:58;;;;;;;0.20;0.10;;;;;;;2.20;100.00;99997.53;4996792;28;20501;-52
2021/01/05 07:41:24;;;;;;;0.20;0.10;;;;;;;2.23;100.00;99993.16;4998462;28;20481;-51
2021/01/05 07:43:51;;;;;;;0.20;0.10;;;;;;;2.40;100.00;100000.13;4997918;28;20450;-51
2021/01/05 07:46:17;;;;;;;0.20;0.10;;;;;;;2.39;100.00;99999.25;4996235;28;20552;-51
2021/01/05 07:48:43;;;;;;;0.20;0.10;;;;;;;2.44;100.00;100002.75;4996440;28;20448;-51
2021/01/05 07:51:11;;;;;;;0.20;0.10;;;;;;;2.31;100.00;100003.63;5004908;28;21021;-51
2021/01/05 07:53:37;;;;;;;0.20;0.10;;;;;;;2.45;100.00;100004.50;4995761;28;20963;-51
2021/01/05 07:56:04;;;;;;;0.20;0.10;;;;;;;2.48;100.00;99998.41;4999199;28;20821;-51
2021/01/05 07:58:30;;;;;;;0.20;0.10;;;;;;;2.54;100.00;100003.63;5005724;28;20519;-51
2021/01/05 08:00:56;;;;;;;0.20;0.10;;;;;;;2.58;100.00;100000.09;5002737;28;20496;-50
2021/01/05 08:03:22;;;;;;;9.73;8.50;;;;;;;2.57;100.00;99999.25;5009350;28;20460;-51
2021/01/05 08:05:48;;;;;;;0.30;0.20;;;;;;;2.63;100.00;100008.88;5007783;28;20449;-51
2021/01/05 08:08:15;;;;;;;0.20;0.10;;;;;;;2.53;100.00;100008.00;5009031;28;20448;-52
2021/01/05 08:10:42;;;;;;;0.20;0.10;;;;;;;2.45;100.00;100004.50;5012258;28;20504;-51
2021/01/05 08:13:10;;;;;;;0.20;0.10;;;;;;;2.56;100.00;100007.09;5024366;28;20970;-51
2021/01/05 08:15:37;;;;;;;0.20;0.10;;;;;;;2.62;100.00;100008.00;5025437;28;20453;-55
2021/01/05 08:18:06;;;;;;;0.20;0.10;;;;;;;2.51;100.00;100015.00;5012337;28;20465;-51
2021/01/05 08:20:37;;;;;;;0.20;0.10;;;;;;;2.37;100.00;100014.13;5023435;28;20511;-51
2021/01/05 08:23:04;;;;;;;0.20;0.10;;;;;;;2.45;100.00;100007.09;5012424;28;20457;-50
2021/01/05 08:25:31;;;;;;;0.20;0.10;;;;;;;2.48;100.00;100009.75;5006935;28;20459;-50
2021/01/05 08:27:58;;;;;;;0.20;0.10;;;;;;;2.45;100.00;100004.50;5005265;28;20449;-51
2021/01/05 08:30:30;;;;;;;0.20;0.10;;;;;;;2.48;100.00;100001.88;5017229;28;20492;-50
2021/01/05 08:33:05;;;;;;;0.20;0.20;;;;;;;2.46;100.00;100005.38;5006278;28;20445;-51
2021/01/05 08:35:32;;;;;;;0.20;0.10;;;;;;;2.46;100.00;100007.97;5007376;28;20469;-51
2021/01/05 08:37:58;;;;;;;0.40;0.40;;;;;;;2.47;100.00;100007.09;4994776;28;20457;-52
2021/01/05 08:40:29;;;;;;;0.20;0.10;;;;;;;2.44;100.00;100007.13;4993494;28;20492;-51
2021/01/05 08:42:56;;;;;;;0.20;0.10;;;;;;;2.55;100.00;100003.63;4994373;28;20448;-51
2021/01/05 08:45:27;;;;;;;0.20;0.10;;;;;;;2.63;100.00;100007.13;4994543;28;20488;-51
2021/01/05 08:47:54;;;;;;;0.30;0.30;;;;;;;2.75;100.00;100014.09;4989889;28;20441;-51
2021/01/05 08:50:31;;;;;;;0.20;0.10;;;;;;;2.83;100.00;100016.69;5004959;28;20491;-52
2021/01/05 08:52:59;;;;;;;0.30;0.10;;;;;;;2.84;100.00;100010.56;4994228;28;20453;-51
2021/01/05 08:55:25;;;;;;;0.20;0.10;;;;;;;2.76;100.00;100012.34;4998684;28;20499;-51
2021/01/05 08:57:52;;;;;;;0.20;0.10;;;;;;;2.73;100.00;100012.34;5003069;28;20449;-51
2021/01/05 09:00:20;;;;;;;0.20;0.10;;;;;;;2.86;100.00;100009.69;4996582;28;20473;-51
2021/01/05 09:02:48;;;;;;;0.20;0.10;;;;;;;2.79;100.00;100007.97;4994531;28;20456;-51
2021/01/05 09:05:14;;;;;;;1.37;1.33;;;;;;;2.76;100.00;100010.59;4994596;28;20457;-53
2021/01/05 09:07:40;;;;;;;0.20;0.10;;;;;;;2.77;100.00;100011.47;4994166;28;20538;-51
2021/01/05 09:10:13;;;;;;;0.20;0.10;;;;;;;2.87;100.00;100007.94;4993689;28;20484;-51
2021/01/05 09:12:39;;;;;;;0.70;0.70;;;;;;;2.87;100.00;100010.56;4995783;28;20901;-51
2021/01/05 09:15:06;;;;;;;0.20;0.10;;;;;;;2.90;100.00;100011.44;4993804;28;20453;-52
2021/01/05 09:17:32;;;;;;;0.40;0.40;;;;;;;2.93;100.00;100007.94;5001140;28;20445;-51
2021/01/05 09:19:58;;;;;;;0.20;0.10;;;;;;;2.93;100.00;100002.69;4994067;28;20501;-51
2021/01/05 09:22:25;;;;;;;0.20;0.20;;;;;;;2.89;100.00;100001.81;5001491;28;20456;-51
2021/01/05 09:24:51;;;;;;;0.20;0.20;;;;;;;2.90;100.00;100008.81;4999486;28;20469;-51
2021/01/05 09:27:18;;;;;;;0.20;0.10;;;;;;;2.93;100.00;100005.31;4993392;28;20805;-51
2021/01/05 09:29:44;;;;;;;0.40;0.40;;;;;;;3.07;100.00;99994.78;4989619;28;20818;-51
2021/01/05 09:32:11;;;;;;;0.20;0.10;;;;;;;3.07;100.00;100008.78;4985586;28;20787;-55
2021/01/05 09:34:37;;;;;;;0.20;0.10;;;;;;;2.77;100.00;100012.34;4989382;28;20473;-52
2021/01/05 09:37:05;;;;;;;0.20;0.10;;;;;;;2.81;100.00;100013.22;4993907;28;20453;-51
2021/01/05 09:39:31;;;;;;;0.20;0.10;;;;;;;2.81;100.00;100007.97;4991111;28;20492;-51
2021/01/05 09:42:03;;;;;;;0.20;0.10;;;;;;;2.85;100.00;100001.81;4990983;28;20466;-51
2021/01/05 09:44:30;;;;;;;0.20;0.10;;;;;;;2.75;100.00;100003.59;4990906;28;20457;-51
2021/01/05 09:46:59;;;;;;;0.20;0.10;;;;;;;2.65;100.00;100004.50;4992531;28;20465;-50
2021/01/05 09:49:27;;;;;;;2.33;2.23;;;;;;;2.57;100.00;100003.63;4992597;28;20461;-50
2021/01/05 09:52:00;;;;;;;2.20;2.10;;;;;;;2.72;100.00;100008.84;4994520;28;20492;-51
2021/01/05 09:54:28;;;;;;;0.20;0.10;;;;;;;2.68;100.00;100010.59;4992126;28;21349;-49
2021/01/05 09:56:56;;;;;;;0.20;0.10;;;;;;;2.65;100.00;100002.75;4991859;28;20520;-49
2021/01/05 09:59:28;;;;;;;0.20;0.10;;;;;;;2.91;100.00;100005.31;4991295;28;20512;-50
2021/01/05 10:01:55;;;;;;;0.20;0.20;;;;;;;2.67;100.00;100006.22;4992065;28;20461;-54
2021/01/05 10:04:22;;;;;;;0.20;0.10;;;;;;;2.72;100.00;100010.59;4990027;28;20496;-51
2021/01/05 10:06:48;;;;;;;0.20;0.10;;;;;;;2.79;100.00;100004.47;4993630;28;20468;-50
2021/01/05 10:09:15;;;;;;;0.20;0.10;;;;;;;2.91;100.00;99999.19;4989266;28;20960;-49
2021/01/05 10:11:43;;;;;;;0.20;0.10;;;;;;;2.87;100.00;99993.06;4991479;28;20481;-49
2021/01/05 10:14:12;;;;;;;0.20;0.10;;;;;;;2.85;100.00;100000.06;4984931;28;20492;-50
2021/01/05 10:16:39;;;;;;;0.20;0.10;;;;;;;2.94;100.00;99996.56;5006962;28;20540;-50
2021/01/05 10:19:06;;;;;;;0.20;0.10;;;;;;;2.92;100.00;99996.56;4987306;28;20493;-49
2021/01/05 10:21:37;;;;;;;0.20;0.10;;;;;;;2.90;100.00;100000.06;4991519;28;20840;-49
2021/01/05 10:24:05;;;;;;;0.20;0.10;;;;;;;2.91;100.00;99993.94;4990956;28;20453;-50
2021/01/05 10:26:33;;;;;;;0.20;0.10;;;;;;;2.99;100.00;100005.28;4997167;28;20963;-50
2021/01/05 10:29:00;;;;;;;0.30;0.20;;;;;;;2.97;100.00;99997.41;4995286;28;20986;-50
2021/01/05 10:31:26;;;;;;;0.20;0.20;;;;;;;2.85;100.00;99993.94;4996735;28;20492;-50
2021/01/05 10:33:52;;;;;;;0.20;0.10;;;;;;;2.98;100.00;99991.28;4999005;28;21201;-50
2021/01/05 10:36:21;;;;;;;0.20;0.10;;;;;;;3.03;100.00;99988.66;4995577;28;20966;-50
2021/01/05 10:39:08;;;;;;;0.20;0.10;;;;;;;3.02;100.00;99992.19;4997129;28;20501;-50
2021/01/05 10:41:40;;;;;;;0.20;0.10;;;;;;;3.01;100.00;99995.66;4995528;28;20486;-50
2021/01/05 10:44:08;;;;;;;0.20;0.10;;;;;;;2.86;100.00;99998.31;4996349;28;20460;-49
2021/01/05 10:46:34;;;;;;;0.20;0.10;;;;;;;2.94;100.00;99992.19;5005783;28;20472;-50
2021/01/05 10:49:00;;;;;;;0.20;0.10;;;;;;;2.96;100.00;99995.66;4996075;28;20868;-54
2021/01/05 10:51:27;;;;;;;0.20;0.10;;;;;;;2.98;100.00;99993.91;4997360;28;20480;-50
2021/01/05 10:53:53;;;;;;;0.20;0.10;;;;;;;2.96;100.00;99993.03;4994882;28;20457;-52
2021/01/05 10:56:20;;;;;;;0.87;0.87;;;;;;;3.00;100.00;99985.16;4996727;28;20457;-50
2021/01/05 10:58:46;;;;;;;1.70;1.60;;;;;;;2.96;100.00;99977.28;4997131;28;20492;-50
2021/01/05 11:01:13;;;;;;;0.20;0.10;;;;;;;2.94;100.00;99986.94;4994321;28;20514;-49
2021/01/05 11:03:39;;;;;;;0.20;0.10;;;;;;;3.07;100.00;99987.78;4997880;28;20453;-49
2021/01/05 11:06:07;;;;;;;0.30;0.30;;;;;;;3.19;100.00;99992.97;5002315;28;20464;-49
2021/01/05 11:08:33;;;;;;;0.20;0.10;;;;;;;3.16;100.00;99985.13;4998229;28;20942;-49
2021/01/05 11:11:00;;;;;;;0.20;0.10;;;;;;;3.25;100.00;99986.81;4999963;28;20485;-50
2021/01/05 11:13:28;;;;;;;0.20;0.10;;;;;;;3.32;100.00;99988.56;4995267;28;20458;-49
2021/01/05 11:15:54;;;;;;;0.20;0.10;;;;;;;3.29;100.00;99980.69;4996928;28;20452;-50
2021/01/05 11:18:21;;;;;;;0.20;0.10;;;;;;;3.36;100.00;99984.16;4991816;28;20542;-51
2021/01/05 11:20:47;;;;;;;0.20;0.10;;;;;;;3.36;100.00;99978.91;4989430;28;20481;-50
2021/01/05 11:23:13;;;;;;;1.40;1.40;;;;;;;3.31;100.00;99985.94;4996282;28;20523;-50
2021/01/05 11:25:40;;;;;;;0.20;0.20;;;;;;;3.43;100.00;99980.63;4995570;28;20461;-50
2021/01/05 11:28:06;;;;;;;0.20;0.10;;;;;;;3.32;100.00;99978.06;4995687;28;20484;-50
2021/01/05 11:30:37;;;;;;;0.20;0.10;;;;;;;3.16;100.00;99981.63;4995579;28;20880;-53
2021/01/05 11:33:04;;;;;;;0.20;0.10;;;;;;;3.16;100.00;99973.75;4995186;28;20461;-51
2021/01/05 11:35:30;;;;;;;0.20;0.10;;;;;;;3.28;100.00;99982.41;4988488;28;20462;-51
2021/01/05 11:37:56;;;;;;;1.03;1.03;;;;;;;3.06;100.00;99975.53;4992332;28;21019;-52
2021/01/05 11:40:22;;;;;;;0.20;0.10;;;;;;;3.22;100.00;99971.97;4986532;28;20536;-52
2021/01/05 11:42:49;;;;;;;0.20;0.10;;;;;;;3.21;100.00;99978.09;4988991;28;20880;-52
2021/01/05 11:45:16;;;;;;;0.20;0.10;;;;;;;3.35;100.00;99961.41;4991108;28;20461;-53
2021/01/05 11:47:43;;;;;;;0.20;0.10;;;;;;;3.40;100.00;99959.63;5010506;28;20974;-52
2021/01/05 11:50:10;;;;;;;0.20;0.10;;;;;;;3.40;100.00;99957.84;4988009;28;20489;-52
2021/01/05 11:52:38;;;;;;;0.20;0.10;;;;;;;3.45;100.00;99956.09;4995448;28;20498;-52